Modesto, CA (95350)

11:28 AM PST on December 07, 2016 (GMT -0800)
| | Change Station

Elev -9999 ft 0.00 °N, 0.00 °E | Updated

Cloudy
Cloudy
50 °F
Feels Like 50 °F
N
2
Wind Variable Wind from SE
Gusts mph

Today
High -- | Low -- °F
--% Chance of Precip.
Yesterday
High -- | Low -- °F
Precip. -- in
Pressure 30.20 in
Visibility 10.0 miles
Clouds Clear
Dew Point 35 °F
Humidity 57%
Rainfall --
Snow Depth Not available.
7:06 AM 4:45 PM
First Quarter, 55% visible
METAR KMOD 071853Z 00000KT 10SM CLR 08/01 A3020 RMK AO2 SLP226 T00780006
Pressure 30.20 in
Visibility 10.0 miles
Clouds Clear
Dew Point 35 °F
Humidity 57%
Rainfall --
Snow Depth Not available.
7:06 AM 4:45 PM
First Quarter, 55% visible
METAR KMOD 071853Z 00000KT 10SM CLR 08/01 A3020 RMK AO2 SLP226 T00780006

10-Day Weather Forecast

Almanac

Astronomy

Dec. 07, 2016 Rise Set
Actual Time
Civil Twilight
Nautical Twilight
Astronomical Twilight
Moon
Length of Visible Light
Length of Day
Tomorrow will be .
, % of the Moon is Illuminated

Today's Extremes

State Highs State Lows

Community

WunderPhotos

Upload Photos

1,956,164 photos uploaded!

WunderBlog® & News

Nearby

Air Quality

  Air Quality AQ Index Pollutant
Not available.

Snow Depth

Station Depth Elevation

Earthquake Activity

City Distance Mag. Time & Date
Minimum magnitude displayed is 2.5.

Coastal Water Temperatures

Place Temperature

Stations

Nearby Weather Stations

Station Location Temp. Windchill Dew Point Humidity Wind Precip. Elev Updated Type
                   

Watches & Warnings

There are currently no watches in effect.